createdAt,value
2022-11-27T00:01:25.722Z,99581.90
2022-11-27T00:03:53.857Z,99584.02
2022-11-27T00:06:22.530Z,99588.77
2022-11-27T00:08:49.679Z,99586.91
2022-11-27T00:11:22.353Z,99588.30
2022-11-27T00:13:49.853Z,99591.67
2022-11-27T00:16:17.583Z,99592.94
2022-11-27T00:18:45.061Z,99597.86
2022-11-27T00:21:22.527Z,99600.14
2022-11-27T00:23:50.728Z,99601.61
2022-11-27T00:26:17.747Z,99598.36
2022-11-27T00:28:44.899Z,99602.61
2022-11-27T00:31:23.003Z,99600.27
2022-11-27T00:33:49.961Z,99600.42
2022-11-27T00:36:16.997Z,99601.40
2022-11-27T00:38:44.025Z,99606.33
2022-11-27T00:41:12.661Z,99603.84
2022-11-27T00:43:44.620Z,99606.41
2022-11-27T00:46:23.909Z,99601.20
2022-11-27T00:48:53.977Z,99608.31
2022-11-27T00:51:22.015Z,99604.48
2022-11-27T00:53:49.198Z,99602.67
2022-11-27T00:56:18.249Z,99596.41
2022-11-27T00:58:45.636Z,99595.36
2022-11-27T01:01:18.240Z,99602.73
2022-11-27T01:03:46.007Z,99602.46
2022-11-27T01:06:14.331Z,99597.61
2022-11-27T01:08:41.669Z,99597.08
2022-11-27T01:11:17.001Z,99602.02
2022-11-27T01:13:44.188Z,99602.08
2022-11-27T01:16:13.869Z,99601.05
2022-11-27T01:18:42.529Z,99600.65
2022-11-27T01:21:09.994Z,99601.92
2022-11-27T01:23:37.185Z,99602.76
2022-11-27T01:26:05.776Z,99603.48
2022-11-27T01:28:33.073Z,99602.73
2022-11-27T01:31:05.223Z,99610.88
2022-11-27T01:33:32.770Z,99609.27
2022-11-27T01:36:02.068Z,99607.30
2022-11-27T01:38:29.890Z,99609.41
2022-11-27T01:41:01.982Z,99605.41
2022-11-27T01:43:37.671Z,99609.91
2022-11-27T01:46:05.833Z,99611.52
2022-11-27T01:48:32.857Z,99608.10
2022-11-27T01:50:59.912Z,99609.91
2022-11-27T01:53:27.372Z,99607.40
2022-11-27T01:55:56.654Z,99604.27
2022-11-27T01:58:25.686Z,99609.80
2022-11-27T02:00:52.789Z,99612.64
2022-11-27T02:03:19.897Z,99618.81
2022-11-27T02:05:46.906Z,99620.98
2022-11-27T02:08:15.169Z,99623.15
2022-11-27T02:10:48.327Z,99624.48
2022-11-27T02:13:28.202Z,99625.25
2022-11-27T02:16:32.952Z,99626.21
2022-11-27T02:19:37.241Z,99633.98
2022-11-27T02:22:08.585Z,99638.80
2022-11-27T02:24:54.151Z,99635.77
2022-11-27T02:27:27.653Z,99642.73
2022-11-27T02:29:56.467Z,99643.65
2022-11-27T02:32:36.991Z,99645.34
2022-11-27T02:35:22.387Z,99648.91
2022-11-27T02:37:52.074Z,99649.14
2022-11-27T02:40:23.485Z,99651.25
2022-11-27T02:42:52.372Z,99662.58
2022-11-27T02:45:23.520Z,99659.14
2022-11-27T02:47:51.071Z,99663.60
2022-11-27T02:50:21.570Z,99661.09
2022-11-27T02:52:49.450Z,99664.65
2022-11-27T02:55:18.069Z,99665.77
2022-11-27T02:57:44.992Z,99670.67
2022-11-27T03:00:12.560Z,99672.41
2022-11-27T03:02:43.936Z,99679.70
2022-11-27T03:05:12.743Z,99683.50
2022-11-27T03:07:49.704Z,99677.23
2022-11-27T03:10:21.085Z,99676.54
2022-11-27T03:12:48.312Z,99682.04
2022-11-27T03:15:15.289Z,99682.33
2022-11-27T03:18:06.666Z,99680.13
2022-11-27T03:20:39.994Z,99684.08
2022-11-27T03:23:07.240Z,99683.06
2022-11-27T03:25:34.216Z,99681.83
2022-11-27T03:28:06.353Z,99678.66
2022-11-27T03:30:33.281Z,99677.90
2022-11-27T03:33:01.144Z,99675.38
2022-11-27T03:35:28.251Z,99682.50
2022-11-27T03:37:55.207Z,99681.41
2022-11-27T05:12:54.234Z,99724.65
2022-11-27T05:15:21.673Z,99722.61
2022-11-27T05:17:49.546Z,99722.61
2022-11-27T05:20:17.000Z,99723.41
2022-11-27T05:22:45.173Z,99726.54
2022-11-27T05:25:12.164Z,99728.30
2022-11-27T05:27:39.153Z,99728.59
2022-11-27T05:30:07.237Z,99732.64
2022-11-27T05:32:34.370Z,99736.83
2022-11-27T05:35:01.328Z,99735.63
2022-11-27T05:37:28.329Z,99739.20
2022-11-27T05:39:55.378Z,99741.41
2022-11-27T05:42:22.346Z,99745.04
2022-11-27T05:44:51.743Z,99749.87
2022-11-27T05:47:22.464Z,99748.37
2022-11-27T05:49:49.441Z,99751.46
2022-11-27T05:52:16.554Z,99756.46
2022-11-27T05:54:44.080Z,99756.15
2022-11-27T05:57:11.036Z,99758.83
2022-11-27T05:59:37.936Z,99757.26
2022-11-27T06:02:05.041Z,99761.09
2022-11-27T06:04:35.260Z,99761.98
2022-11-27T06:07:02.272Z,99769.64
2022-11-27T06:09:29.424Z,99774.13
2022-11-27T06:11:56.701Z,99777.94
2022-11-27T06:14:24.686Z,99779.41
2022-11-27T06:16:51.748Z,99775.66
2022-11-27T06:19:21.878Z,99777.17
2022-11-27T06:21:48.943Z,99779.33
2022-11-27T06:24:15.929Z,99784.55
2022-11-27T06:26:45.617Z,99785.98
2022-11-27T06:29:12.548Z,99788.27
2022-11-27T06:31:39.659Z,99792.61
2022-11-27T06:34:06.772Z,99791.95
2022-11-27T06:36:36.395Z,99792.05
2022-11-27T06:39:04.617Z,99799.14
2022-11-27T06:41:32.595Z,99799.60
2022-11-27T06:44:00.153Z,99805.15
2022-11-27T06:46:27.718Z,99802.58
2022-11-27T06:48:54.737Z,99806.50
2022-11-27T06:51:23.708Z,99809.41
2022-11-27T06:53:51.028Z,99804.85
2022-11-27T06:56:20.783Z,99803.27
2022-11-27T06:58:51.194Z,99803.61
2022-11-27T07:01:18.503Z,99806.75
2022-11-27T07:03:45.767Z,99805.06
2022-11-27T07:06:15.342Z,99803.92
2022-11-27T07:08:45.173Z,99802.27
2022-11-27T07:11:20.314Z,99804.16
2022-11-27T07:13:47.596Z,99799.88
2022-11-27T08:41:29.683Z,99820.84
2022-11-27T08:43:56.654Z,99816.63
2022-11-27T08:46:23.679Z,99816.39
2022-11-27T08:48:50.650Z,99817.20
2022-11-27T08:51:17.654Z,99820.48
2022-11-27T08:53:45.836Z,99815.98
2022-11-27T08:56:17.813Z,99813.02
2022-11-27T08:58:44.856Z,99814.54
2022-11-27T09:01:15.223Z,99810.89
2022-11-27T09:03:42.529Z,99808.58
2022-11-27T09:06:10.651Z,99808.95
2022-11-27T09:08:39.176Z,99807.48
2022-11-27T09:11:06.594Z,99805.92
2022-11-27T09:13:39.407Z,99807.90
2022-11-27T09:16:08.593Z,99808.05
2022-11-27T09:18:36.279Z,99809.41
2022-11-27T09:21:08.432Z,99805.64
2022-11-27T09:23:35.893Z,99803.23
2022-11-27T09:26:04.007Z,99803.85
2022-11-27T09:28:32.261Z,99801.23
2022-11-27T09:31:01.189Z,99797.67
2022-11-27T09:33:30.008Z,99795.89
2022-11-27T09:35:57.571Z,99790.66
2022-11-27T09:38:24.643Z,99786.98
2022-11-27T09:40:53.216Z,99782.67
2022-11-27T09:43:28.881Z,99782.45
2022-11-27T09:45:58.034Z,99780.20
2022-11-27T09:48:33.098Z,99781.04
2022-11-27T09:51:04.124Z,99778.76
2022-11-27T09:54:02.432Z,99780.71
2022-11-27T09:56:29.540Z,99774.98
2022-11-27T09:58:57.639Z,99772.88
2022-11-27T10:01:34.915Z,99773.96
2022-11-27T10:04:06.577Z,99773.02
2022-11-27T10:06:36.658Z,99765.63
2022-11-27T10:09:12.841Z,99763.43
2022-11-27T10:11:57.032Z,99761.93
2022-11-27T10:14:44.361Z,99760.34
2022-11-27T10:17:20.836Z,99756.52
2022-11-27T10:19:54.287Z,99755.90
2022-11-27T10:22:44.319Z,99755.00
2022-11-27T10:25:40.708Z,99757.73
2022-11-27T10:28:11.053Z,99761.50
2022-11-27T10:30:40.643Z,99758.22
2022-11-27T10:33:15.379Z,99756.55
2022-11-27T10:35:42.301Z,99756.42
2022-11-27T10:38:36.361Z,99752.88
2022-11-27T10:41:41.993Z,99759.19
2022-11-27T10:44:23.609Z,99757.41
2022-11-27T10:46:51.263Z,99753.71
2022-11-27T10:49:18.183Z,99754.02
2022-11-27T10:51:46.312Z,99754.16
2022-11-27T10:54:21.995Z,99753.94
2022-11-27T10:57:10.576Z,99754.97
2022-11-27T11:00:05.359Z,99758.45
2022-11-27T11:02:34.298Z,99757.14
2022-11-27T11:05:34.612Z,99756.83
2022-11-27T11:07:59.434Z,99758.70
2022-11-27T11:10:36.559Z,99751.70
2022-11-27T11:13:14.316Z,99756.16
2022-11-27T11:16:14.466Z,99753.55
2022-11-27T11:18:49.441Z,99754.13
2022-11-27T11:21:24.678Z,99750.77
2022-11-27T11:24:05.104Z,99752.01
2022-11-27T11:26:59.227Z,99747.96
2022-11-27T11:29:28.165Z,99747.06
2022-11-27T11:31:55.998Z,99747.76
2022-11-27T11:34:27.375Z,99743.10
2022-11-27T11:37:08.984Z,99744.19
2022-11-27T11:39:58.442Z,99741.89
2022-11-27T11:42:30.075Z,99743.17
2022-11-27T11:45:03.421Z,99743.24
2022-11-27T11:47:30.548Z,99743.14
2022-11-27T11:49:57.535Z,99741.25
2022-11-27T11:53:08.355Z,99736.35
2022-11-27T11:55:42.115Z,99738.27
2022-11-27T11:58:33.537Z,99737.52
2022-11-27T12:01:27.322Z,99741.20
2022-11-27T12:04:10.814Z,99742.00
2022-11-27T12:07:15.723Z,99741.08
2022-11-27T12:09:42.760Z,99741.39
2022-11-27T12:12:18.576Z,99743.54
2022-11-27T12:14:52.996Z,99740.39
2022-11-27T12:17:33.175Z,99739.41
2022-11-27T12:20:18.836Z,99739.48
2022-11-27T12:22:53.941Z,99743.02
2022-11-27T12:25:27.581Z,99746.79
2022-11-27T12:28:13.656Z,99746.05
2022-11-27T12:30:46.448Z,99746.41
2022-11-27T12:33:23.470Z,99745.17
2022-11-27T12:36:02.127Z,99746.96
2022-11-27T12:38:42.098Z,99744.73
2022-11-27T12:41:15.137Z,99747.09
2022-11-27T12:43:45.534Z,99743.96
2022-11-27T12:46:14.986Z,99746.23
2022-11-27T12:49:00.093Z,99748.27
2022-11-27T12:57:00.717Z,99748.84
2022-11-27T12:59:39.369Z,99747.72
2022-11-27T13:02:33.054Z,99741.35
2022-11-27T13:05:18.263Z,99746.09
2022-11-27T13:07:56.894Z,99748.73
2022-11-27T13:10:49.127Z,99746.20
2022-11-27T13:13:25.457Z,99745.17
2022-11-27T13:15:54.874Z,99744.49
2022-11-27T13:18:26.629Z,99744.40
2022-11-27T13:20:53.842Z,99747.11
2022-11-27T13:23:21.033Z,99750.20
2022-11-27T13:25:53.227Z,99752.77
2022-11-27T13:28:33.199Z,99752.00
2022-11-27T13:31:00.295Z,99756.85
2022-11-27T13:33:41.907Z,99757.59
2022-11-27T17:47:18.156Z,99721.17
2022-11-27T17:49:45.362Z,99719.70
2022-11-27T17:52:13.126Z,99710.75
2022-11-27T17:54:40.693Z,99707.58
2022-11-27T17:57:07.664Z,99705.70
2022-11-27T17:59:35.096Z,99704.89
2022-11-27T18:02:02.219Z,99704.48
2022-11-27T18:04:31.192Z,99706.69
2022-11-27T18:06:58.786Z,99703.73
2022-11-27T18:09:25.779Z,99704.06
2022-11-27T18:11:55.585Z,99704.59
2022-11-27T18:14:22.955Z,99699.04
2022-11-27T18:16:51.286Z,99700.09
2022-11-27T18:19:18.537Z,99695.73
2022-11-27T18:21:45.620Z,99698.24
2022-11-27T18:24:28.184Z,99693.63
2022-11-27T18:27:11.082Z,99692.05
2022-11-27T18:29:39.919Z,99691.05
2022-11-27T18:32:07.226Z,99692.90
2022-11-27T18:34:34.429Z,99694.21
2022-11-27T18:37:01.454Z,99688.73
2022-11-27T18:39:28.635Z,99693.38
2022-11-27T18:41:55.898Z,99694.99
2022-11-27T18:44:22.896Z,99693.33
2022-11-27T18:46:50.802Z,99689.14
2022-11-27T18:49:18.451Z,99688.83
2022-11-27T18:51:46.517Z,99691.66
2022-11-27T18:54:13.846Z,99689.38
2022-11-27T18:56:41.251Z,99690.92
2022-11-27T18:59:09.089Z,99688.02
2022-11-27T19:01:41.875Z,99688.55
2022-11-27T19:04:10.721Z,99687.31
2022-11-27T19:06:38.118Z,99689.11
2022-11-27T19:09:06.019Z,99696.27
2022-11-27T19:11:34.137Z,99689.55
2022-11-27T19:14:01.741Z,99691.77
2022-11-27T19:16:31.882Z,99693.71
2022-11-27T19:18:59.919Z,99693.25
2022-11-27T19:21:28.512Z,99695.91
2022-11-27T19:23:57.029Z,99696.73
2022-11-27T19:26:27.202Z,99693.02
2022-11-27T19:28:57.571Z,99691.34
2022-11-27T19:31:27.664Z,99689.01
2022-11-27T19:33:55.484Z,99691.98
2022-11-27T19:36:23.128Z,99692.35
2022-11-27T19:38:54.532Z,99692.15
2022-11-27T19:41:21.692Z,99691.20
2022-11-27T19:43:48.992Z,99690.13
2022-11-27T19:46:17.216Z,99688.29
2022-11-27T19:48:45.032Z,99687.45
2022-11-27T19:51:13.033Z,99686.90
2022-11-27T19:53:40.362Z,99689.52
2022-11-27T19:56:07.990Z,99687.92
2022-11-27T19:58:35.281Z,99685.33
2022-11-27T20:01:13.377Z,99687.56
2022-11-27T20:03:41.220Z,99685.56
2022-11-27T20:06:12.785Z,99687.28
2022-11-27T20:08:39.851Z,99684.21
2022-11-27T20:11:09.007Z,99688.29
2022-11-27T20:13:36.600Z,99687.34
2022-11-27T20:16:15.349Z,99680.34
2022-11-27T20:18:42.701Z,99677.39
2022-11-27T20:21:21.158Z,99677.48
2022-11-27T20:23:48.833Z,99673.94
2022-11-27T20:26:18.133Z,99667.73
2022-11-27T20:28:45.578Z,99667.40
2022-11-27T20:31:23.974Z,99665.52
2022-11-27T20:33:52.497Z,99670.55
2022-11-27T20:36:20.205Z,99671.21
2022-11-27T20:38:49.133Z,99669.95
2022-11-27T20:41:18.037Z,99673.20
2022-11-27T20:43:45.280Z,99670.73
2022-11-27T20:46:15.040Z,99664.61
2022-11-27T20:48:42.640Z,99665.52
2022-11-27T20:51:11.391Z,99664.56
2022-11-27T20:53:38.729Z,99661.86
2022-11-27T20:56:06.396Z,99663.79
2022-11-27T20:58:35.273Z,99663.52
2022-11-27T21:01:16.556Z,99662.28
2022-11-27T21:03:44.743Z,99662.90
2022-11-27T21:06:12.309Z,99659.13
2022-11-27T21:08:39.325Z,99654.43
2022-11-27T21:11:13.756Z,99652.44
2022-11-27T21:13:41.230Z,99652.58
2022-11-27T21:16:13.562Z,99651.50
2022-11-27T21:18:40.681Z,99651.71
2022-11-27T21:21:11.956Z,99650.75
2022-11-27T21:23:40.572Z,99646.63
2022-11-27T21:26:08.392Z,99641.11
2022-11-27T21:28:36.194Z,99640.14
2022-11-27T21:31:08.300Z,99639.33
2022-11-27T21:33:37.082Z,99637.89
2022-11-27T21:36:05.102Z,99639.52
2022-11-27T21:38:32.790Z,99641.23
2022-11-27T21:40:59.861Z,99637.33
2022-11-27T21:43:27.127Z,99639.83
2022-11-27T21:45:54.971Z,99640.04
2022-11-27T21:48:22.411Z,99634.19
2022-11-27T21:50:49.434Z,99632.09
2022-11-27T21:53:16.803Z,99632.66
2022-11-27T21:55:44.831Z,99630.39
2022-11-27T21:58:11.933Z,99631.27
2022-11-27T22:00:39.549Z,99631.45
2022-11-27T22:03:07.168Z,99630.13
2022-11-27T23:26:33.041Z,99626.16
2022-11-27T23:29:00.135Z,99622.30
2022-11-27T23:31:31.088Z,99612.91
2022-11-27T23:33:58.860Z,99609.63
2022-11-27T23:36:25.903Z,99607.45
2022-11-27T23:38:52.892Z,99607.55
2022-11-27T23:41:21.610Z,99607.55
2022-11-27T23:43:48.994Z,99603.98
2022-11-27T23:46:17.014Z,99599.75
2022-11-27T23:48:44.234Z,99598.67
2022-11-27T23:51:16.187Z,99595.95
2022-11-27T23:53:43.403Z,99591.98
2022-11-27T23:56:14.880Z,99588.56
2022-11-27T23:58:46.700Z,99589.23
